createdAt,value
2019-05-25T00:00:01.525Z,8.93
2019-05-25T00:02:29.952Z,8.53
2019-05-25T00:04:58.036Z,9.10
2019-05-25T00:07:26.132Z,8.63
2019-05-25T00:09:54.212Z,8.43
2019-05-25T00:12:22.309Z,8.20
2019-05-25T00:14:50.388Z,8.53
2019-05-25T00:17:18.490Z,8.07
2019-05-25T00:19:46.582Z,8.50
2019-05-25T00:22:14.669Z,8.60
2019-05-25T00:24:42.744Z,8.23
2019-05-25T00:27:10.865Z,8.57
2019-05-25T00:29:38.940Z,7.50
2019-05-25T00:32:07.022Z,7.30
2019-05-25T00:34:35.457Z,7.50
2019-05-25T00:37:03.870Z,7.27
2019-05-25T00:39:32.297Z,7.97
2019-05-25T00:42:00.717Z,8.20
2019-05-25T00:44:28.819Z,8.03
2019-05-25T00:46:56.901Z,7.77
2019-05-25T00:49:24.989Z,8.60
2019-05-25T00:51:53.075Z,8.50
2019-05-25T00:54:28.109Z,9.40
2019-05-25T00:56:51.305Z,8.87
2019-05-25T00:59:19.400Z,8.40
2019-05-25T01:01:47.544Z,7.90
2019-05-25T01:04:15.624Z,8.30
2019-05-25T01:06:43.700Z,8.27
2019-05-25T01:09:11.789Z,9.43
2019-05-25T01:11:39.873Z,8.40
2019-05-25T01:14:07.956Z,8.87
2019-05-25T01:16:36.045Z,9.03
2019-05-25T01:19:04.208Z,8.63
2019-05-25T01:21:32.361Z,9.03
2019-05-25T01:24:00.449Z,8.20
2019-05-25T01:26:28.587Z,9.20
2019-05-25T01:28:57.034Z,9.43
2019-05-25T01:31:25.452Z,8.10
2019-05-25T01:33:53.561Z,9.00
2019-05-25T01:36:22.053Z,8.70
2019-05-25T01:38:50.484Z,8.43
2019-05-25T01:41:18.568Z,8.17
2019-05-25T01:43:46.668Z,8.90
2019-05-25T01:46:14.750Z,8.83
2019-05-25T01:48:45.962Z,8.87
2019-05-25T01:51:14.381Z,8.47
2019-05-25T01:53:42.760Z,8.83
2019-05-25T01:56:10.845Z,8.77
2019-05-25T01:58:38.946Z,9.70
2019-05-25T02:01:07.365Z,9.30
2019-05-25T02:03:35.793Z,9.37
2019-05-25T02:06:04.282Z,8.03
2019-05-25T02:08:33.026Z,8.53
2019-05-25T02:11:01.470Z,8.63
2019-05-25T02:13:30.010Z,9.40
2019-05-25T02:15:58.440Z,8.73
2019-05-25T02:18:26.860Z,9.03
2019-05-25T02:20:55.281Z,8.70
2019-05-25T02:23:23.365Z,9.17
2019-05-25T02:25:51.566Z,9.57
2019-05-25T02:28:20.261Z,8.83
2019-05-25T02:30:48.680Z,9.73
2019-05-25T02:33:17.104Z,10.73
2019-05-25T02:35:45.793Z,9.67
2019-05-25T02:38:13.879Z,10.27
2019-05-25T02:40:41.974Z,10.30
2019-05-25T02:43:10.130Z,10.10
2019-05-25T02:45:38.217Z,9.30
2019-05-25T02:48:06.308Z,10.57
2019-05-25T02:50:34.403Z,9.60
2019-05-25T02:53:02.480Z,9.27
2019-05-25T02:55:34.522Z,9.87
2019-05-25T02:58:00.390Z,9.03
2019-05-25T03:00:32.092Z,9.10
2019-05-25T03:03:01.360Z,9.33
2019-05-25T03:05:30.225Z,9.20
2019-05-25T03:07:58.782Z,8.97
2019-05-25T03:10:26.941Z,9.27
2019-05-25T03:12:55.779Z,9.53
2019-05-25T03:15:23.937Z,9.00
2019-05-25T03:17:52.024Z,9.90
2019-05-25T03:20:20.531Z,10.00
2019-05-25T03:22:49.206Z,8.93
2019-05-25T03:25:49.127Z,8.93
2019-05-25T03:28:07.022Z,9.70
2019-05-25T03:30:35.988Z,9.10
2019-05-25T03:33:04.886Z,8.93
2019-05-25T03:35:33.035Z,9.27
2019-05-25T03:38:01.518Z,9.80
2019-05-25T03:40:29.611Z,9.00
2019-05-25T03:42:57.699Z,9.73
2019-05-25T03:45:25.797Z,9.70
2019-05-25T03:47:54.246Z,9.40
2019-05-25T03:50:22.781Z,9.47
2019-05-25T03:52:51.273Z,9.03
2019-05-25T03:55:19.720Z,9.67
2019-05-25T03:57:47.974Z,9.00
2019-05-25T04:00:17.582Z,10.00
2019-05-25T04:02:46.023Z,9.87
2019-05-25T04:05:14.109Z,9.10
2019-05-25T04:07:42.197Z,9.17
2019-05-25T04:10:10.958Z,10.97
2019-05-25T04:12:39.621Z,10.07
2019-05-25T04:15:08.725Z,10.03
2019-05-25T04:17:36.868Z,11.47
2019-05-25T04:20:08.313Z,10.60
2019-05-25T04:22:36.404Z,11.30
2019-05-25T04:25:04.977Z,11.60
2019-05-25T04:27:33.765Z,10.20
2019-05-25T04:30:02.214Z,9.73
2019-05-25T04:32:30.644Z,9.67
2019-05-25T04:34:58.727Z,9.20
2019-05-25T04:37:26.822Z,10.23
2019-05-25T04:39:54.913Z,10.70
2019-05-25T04:42:23.353Z,10.83
2019-05-25T04:44:51.774Z,10.73
2019-05-25T04:47:26.772Z,11.00
2019-05-25T04:49:50.348Z,10.60
2019-05-25T04:52:19.108Z,10.47
2019-05-25T04:54:47.497Z,10.00
2019-05-25T04:57:15.604Z,9.77
2019-05-25T04:59:43.681Z,11.23
2019-05-25T05:02:12.117Z,10.60
2019-05-25T05:04:40.798Z,11.17
2019-05-25T05:07:09.238Z,10.40
2019-05-25T05:09:37.645Z,10.73
2019-05-25T05:12:06.049Z,10.50
2019-05-25T05:14:34.474Z,11.03
2019-05-25T05:17:03.204Z,10.73
2019-05-25T05:19:31.284Z,10.90
2019-05-25T05:21:59.665Z,10.37
2019-05-25T05:24:28.093Z,10.30
2019-05-25T05:26:56.598Z,10.43
2019-05-25T05:29:25.409Z,10.53
2019-05-25T05:31:53.836Z,11.97
2019-05-25T05:34:21.912Z,10.27
2019-05-25T05:36:50.570Z,11.07
2019-05-25T05:39:18.668Z,11.27
2019-05-25T05:41:50.178Z,11.03
2019-05-25T05:44:21.109Z,11.17
2019-05-25T05:46:49.574Z,11.50
2019-05-25T05:49:18.028Z,11.00
2019-05-25T05:51:49.633Z,11.43
2019-05-25T05:54:20.318Z,11.33
2019-05-25T05:56:48.768Z,11.10
2019-05-25T05:59:16.885Z,12.20
2019-05-25T06:01:45.297Z,12.33
2019-05-25T06:04:13.726Z,12.07
2019-05-25T06:06:42.147Z,11.67
2019-05-25T06:09:10.574Z,12.10
2019-05-25T06:11:39.008Z,11.57
2019-05-25T06:14:07.092Z,12.67
2019-05-25T06:16:35.469Z,12.33
2019-05-25T06:19:04.161Z,12.00
2019-05-25T06:21:32.663Z,12.37
2019-05-25T06:24:01.461Z,12.03
2019-05-25T06:26:30.204Z,13.07
2019-05-25T06:28:58.631Z,12.57
2019-05-25T06:31:27.050Z,12.87
2019-05-25T06:33:55.481Z,13.03
2019-05-25T06:36:24.005Z,13.57
2019-05-25T06:38:52.477Z,13.13
2019-05-25T06:41:20.921Z,12.93
2019-05-25T06:43:49.360Z,13.63
2019-05-25T06:46:17.775Z,12.87
2019-05-25T06:48:46.200Z,12.63
2019-05-25T06:51:14.637Z,12.90
2019-05-25T06:53:43.058Z,12.83
2019-05-25T06:56:11.481Z,13.13
2019-05-25T06:58:39.909Z,12.97
2019-05-25T07:01:08.649Z,11.83
2019-05-25T07:03:37.152Z,12.33
2019-05-25T07:06:05.570Z,11.63
2019-05-25T07:08:34.009Z,11.23
2019-05-25T07:11:02.529Z,12.60
2019-05-25T07:13:31.244Z,12.40
2019-05-25T07:15:59.659Z,12.20
2019-05-25T07:18:28.092Z,12.53
2019-05-25T07:20:56.558Z,12.00
2019-05-25T07:23:25.145Z,11.83
2019-05-25T07:25:53.816Z,12.50
2019-05-25T07:28:22.609Z,11.97
2019-05-25T07:30:51.100Z,12.07
2019-05-25T07:33:19.531Z,12.10
2019-05-25T07:35:47.945Z,11.30
2019-05-25T07:38:16.374Z,11.50
2019-05-25T07:40:44.795Z,11.13
2019-05-25T07:43:13.218Z,11.50
2019-05-25T07:45:41.818Z,11.30
2019-05-25T07:48:10.263Z,11.40
2019-05-25T07:50:38.742Z,10.77
2019-05-25T07:53:07.164Z,11.60
2019-05-25T07:55:35.838Z,11.00
2019-05-25T07:58:16.865Z,11.27
2019-05-25T08:00:34.413Z,10.67
2019-05-25T08:03:02.921Z,11.30
2019-05-25T08:05:31.350Z,11.13
2019-05-25T08:07:59.467Z,10.73
2019-05-25T08:10:28.421Z,10.90
2019-05-25T08:12:56.852Z,10.77
2019-05-25T08:15:24.961Z,10.90
2019-05-25T08:17:53.378Z,10.37
2019-05-25T08:20:21.813Z,10.80
2019-05-25T08:22:50.230Z,11.30
2019-05-25T08:25:39.874Z,11.20
2019-05-25T08:28:08.619Z,10.87
2019-05-25T08:30:37.118Z,10.80
2019-05-25T08:33:05.659Z,10.93
2019-05-25T08:35:34.245Z,9.00
2019-05-25T08:38:04.570Z,9.33
2019-05-25T08:40:33.257Z,9.57
2019-05-25T08:43:01.672Z,9.43
2019-05-25T08:45:31.033Z,9.83
2019-05-25T08:47:59.530Z,10.13
2019-05-25T08:50:37.932Z,10.03
2019-05-25T08:52:58.603Z,10.30
2019-05-25T08:55:28.199Z,9.83
2019-05-25T08:57:56.722Z,9.33
2019-05-25T09:00:25.299Z,10.60
2019-05-25T09:02:53.722Z,9.67
2019-05-25T09:05:22.153Z,9.63
2019-05-25T09:07:50.604Z,8.90
2019-05-25T09:10:19.525Z,8.67
2019-05-25T09:12:48.017Z,8.70
2019-05-25T09:15:16.533Z,7.90
2019-05-25T09:17:44.963Z,8.30
2019-05-25T09:20:13.750Z,8.03
2019-05-25T09:22:43.865Z,7.37
2019-05-25T09:25:12.839Z,7.53
2019-05-25T09:27:41.502Z,7.90
2019-05-25T09:30:12.083Z,7.90
2019-05-25T09:32:40.499Z,6.10
2019-05-25T09:35:09.422Z,6.43
2019-05-25T09:37:39.159Z,6.47
2019-05-25T09:40:09.114Z,5.47
2019-05-25T09:42:38.423Z,5.70
2019-05-25T09:45:08.048Z,7.53
2019-05-25T09:47:36.517Z,7.63
2019-05-25T09:50:19.119Z,3.20
2019-05-25T09:52:57.725Z,3.30
2019-05-25T09:55:27.544Z,3.67
2019-05-25T09:58:05.202Z,4.00
2019-05-25T10:00:40.361Z,4.03
2019-05-25T10:03:10.061Z,4.10
2019-05-25T10:05:42.212Z,4.33
2019-05-25T10:08:10.734Z,3.53
2019-05-25T10:10:39.446Z,5.23
2019-05-25T10:13:07.945Z,5.60
2019-05-25T10:15:36.454Z,4.80
2019-05-25T10:18:04.918Z,4.03
2019-05-25T10:20:33.397Z,4.30
2019-05-25T10:23:01.822Z,2.90
2019-05-25T10:25:49.600Z,3.07
2019-05-25T10:28:18.053Z,4.90
2019-05-25T10:30:46.558Z,3.87
2019-05-25T10:33:14.969Z,3.60
2019-05-25T10:35:43.577Z,3.47
2019-05-25T10:38:12.065Z,3.40
2019-05-25T10:40:41.591Z,4.03
2019-05-25T10:43:11.495Z,3.03
2019-05-25T10:45:40.178Z,4.13
2019-05-25T10:48:08.646Z,3.77
2019-05-25T10:50:37.094Z,2.90
2019-05-25T10:53:06.005Z,2.90
2019-05-25T10:55:34.785Z,2.53
2019-05-25T10:58:03.666Z,2.30
2019-05-25T11:00:32.096Z,2.17
2019-05-25T11:03:00.530Z,2.10
2019-05-25T11:05:29.158Z,1.83
2019-05-25T11:07:58.121Z,1.77
2019-05-25T11:10:26.766Z,1.40
2019-05-25T11:12:55.455Z,1.60
2019-05-25T11:15:43.225Z,1.60
2019-05-25T11:18:11.654Z,1.67
2019-05-25T11:20:40.143Z,1.70
2019-05-25T11:23:08.576Z,1.90
2019-05-25T11:25:36.987Z,1.67
2019-05-25T11:28:08.255Z,1.73
2019-05-25T11:30:35.550Z,1.83
2019-05-25T11:33:04.039Z,2.13
2019-05-25T11:35:32.529Z,1.93
2019-05-25T11:38:00.946Z,1.93
2019-05-25T11:40:29.362Z,2.10
2019-05-25T11:42:57.792Z,2.23
2019-05-25T11:45:26.282Z,1.80
2019-05-25T11:47:54.712Z,1.53
2019-05-25T11:50:23.472Z,1.80
2019-05-25T11:52:52.080Z,1.50
2019-05-25T11:55:20.776Z,1.60
2019-05-25T11:57:49.211Z,1.50
2019-05-25T12:00:25.349Z,1.80
2019-05-25T12:02:50.196Z,1.70
2019-05-25T12:05:19.465Z,1.70
2019-05-25T12:07:47.957Z,2.17
2019-05-25T12:10:16.638Z,2.30
2019-05-25T12:12:45.113Z,2.00
2019-05-25T12:15:14.196Z,2.33
2019-05-25T12:17:42.610Z,2.10
2019-05-25T12:20:11.571Z,2.63
2019-05-25T12:22:39.992Z,2.23
2019-05-25T12:25:08.748Z,2.70
2019-05-25T12:27:37.170Z,1.90
2019-05-25T12:30:07.132Z,2.60
2019-05-25T12:32:35.555Z,2.50
2019-05-25T12:35:06.407Z,2.83
2019-05-25T12:37:35.548Z,2.73
2019-05-25T12:40:05.517Z,2.60
2019-05-25T12:42:34.008Z,2.70
2019-05-25T12:45:02.445Z,2.77
2019-05-25T12:47:30.861Z,3.60
2019-05-25T12:49:59.284Z,3.20
2019-05-25T12:52:27.717Z,3.00
2019-05-25T12:54:56.121Z,3.23
2019-05-25T12:57:24.832Z,3.17
2019-05-25T12:59:53.621Z,3.43
2019-05-25T13:02:22.038Z,3.70
2019-05-25T13:04:50.742Z,3.73
2019-05-25T13:07:19.184Z,4.20
2019-05-25T13:09:47.601Z,4.30
2019-05-25T13:12:16.033Z,4.33
2019-05-25T13:14:44.447Z,4.53
2019-05-25T13:17:12.880Z,4.20
2019-05-25T13:19:41.293Z,4.13
2019-05-25T13:22:09.721Z,4.40
2019-05-25T13:24:38.189Z,4.17
2019-05-25T13:27:06.743Z,7.77
2019-05-25T13:29:35.171Z,8.23
2019-05-25T13:32:03.654Z,8.97
2019-05-25T13:34:32.073Z,9.57
2019-05-25T13:37:01.921Z,9.90
2019-05-25T13:39:30.697Z,10.30
2019-05-25T13:41:59.143Z,9.70
2019-05-25T13:44:27.553Z,9.47
2019-05-25T13:46:55.985Z,10.17
2019-05-25T13:49:24.421Z,10.87
2019-05-25T13:51:52.845Z,13.60
2019-05-25T13:54:21.273Z,12.80
2019-05-25T13:56:49.704Z,14.67
2019-05-25T13:59:18.386Z,15.10
2019-05-25T14:01:46.810Z,14.97
2019-05-25T14:04:15.244Z,12.43
2019-05-25T14:06:43.930Z,8.57
2019-05-25T14:09:15.671Z,5.57
2019-05-25T14:11:42.506Z,9.50
2019-05-25T14:14:10.941Z,12.00
2019-05-25T14:16:40.302Z,11.53
2019-05-25T14:19:08.739Z,10.70
2019-05-25T14:21:37.156Z,11.43
2019-05-25T14:24:05.608Z,10.17
2019-05-25T14:26:34.059Z,9.03
2019-05-25T14:29:02.483Z,8.13
2019-05-25T14:31:44.397Z,7.17
2019-05-25T14:34:01.068Z,6.13
2019-05-25T14:36:29.500Z,5.57
2019-05-25T14:38:57.929Z,6.43
2019-05-25T14:41:26.336Z,5.47
2019-05-25T14:43:54.765Z,5.50
2019-05-25T14:46:27.712Z,5.40
2019-05-25T14:48:53.334Z,5.57
2019-05-25T14:51:21.796Z,7.00
2019-05-25T14:53:50.220Z,7.57
2019-05-25T14:56:18.640Z,5.90
2019-05-25T14:58:47.176Z,5.60
2019-05-25T15:01:16.013Z,5.43
2019-05-25T15:03:44.457Z,6.67
2019-05-25T15:06:13.292Z,7.43
2019-05-25T15:08:41.775Z,6.87
2019-05-25T15:11:10.183Z,7.77
2019-05-25T15:13:38.606Z,6.87
2019-05-25T15:16:07.079Z,6.23
2019-05-25T15:18:35.868Z,7.20
2019-05-25T15:21:04.541Z,7.10
2019-05-25T15:23:32.968Z,6.90
2019-05-25T15:26:01.465Z,6.43
2019-05-25T15:28:29.887Z,6.40
2019-05-25T15:30:58.606Z,7.53
2019-05-25T15:33:27.292Z,8.57
2019-05-25T15:35:55.799Z,8.90
2019-05-25T15:38:24.233Z,10.10
2019-05-25T15:40:52.664Z,11.10
2019-05-25T15:43:21.077Z,10.17
2019-05-25T15:45:49.511Z,11.73
2019-05-25T15:48:18.288Z,11.47
2019-05-25T15:50:47.052Z,11.60
2019-05-25T15:53:16.335Z,11.47
2019-05-25T15:55:44.784Z,11.87
2019-05-25T15:58:13.217Z,12.90
2019-05-25T16:00:49.789Z,13.17
2019-05-25T16:03:20.310Z,12.47
2019-05-25T16:05:49.927Z,12.87
2019-05-25T16:08:19.580Z,12.20
2019-05-25T16:10:48.663Z,11.67
2019-05-25T16:13:17.648Z,11.00
2019-05-25T16:15:46.413Z,12.13
2019-05-25T16:18:14.842Z,11.37
2019-05-25T16:20:43.260Z,10.07
2019-05-25T16:23:11.701Z,9.40
2019-05-25T16:25:40.131Z,10.90
2019-05-25T16:28:08.582Z,9.63
2019-05-25T16:30:37.005Z,8.30
2019-05-25T16:33:12.527Z,9.37
2019-05-25T16:35:35.597Z,10.50
2019-05-25T16:38:04.231Z,9.90
2019-05-25T16:40:32.804Z,8.93
2019-05-25T16:43:01.228Z,6.77
2019-05-25T16:45:29.923Z,7.43
2019-05-25T16:47:58.576Z,7.23
2019-05-25T16:50:27.295Z,6.13
2019-05-25T16:52:55.734Z,5.90
2019-05-25T16:55:24.187Z,6.13
2019-05-25T16:57:52.717Z,5.80
2019-05-25T17:00:29.061Z,5.70
2019-05-25T17:02:59.036Z,5.20
2019-05-25T17:05:28.150Z,5.67
2019-05-25T17:07:56.977Z,6.50
2019-05-25T17:10:25.473Z,6.17
2019-05-25T17:12:54.177Z,5.03
2019-05-25T17:15:23.071Z,5.23
2019-05-25T17:17:51.863Z,5.03
2019-05-25T17:20:20.625Z,5.30
2019-05-25T17:22:49.301Z,5.53
2019-05-25T17:25:17.883Z,5.30
2019-05-25T17:27:46.352Z,5.10
2019-05-25T17:30:16.594Z,5.63
2019-05-25T17:32:45.087Z,5.60
2019-05-25T17:35:14.837Z,6.37
2019-05-25T17:37:43.258Z,5.50
2019-05-25T17:40:12.289Z,7.03
2019-05-25T17:42:41.078Z,6.00
2019-05-25T17:45:09.657Z,5.60
2019-05-25T17:47:38.086Z,6.03
2019-05-25T17:50:07.563Z,6.10
2019-05-25T17:52:36.321Z,5.77
2019-05-25T17:55:09.433Z,6.47
2019-05-25T17:57:38.217Z,5.80
2019-05-25T18:00:08.067Z,6.20
2019-05-25T18:02:36.525Z,5.80
2019-05-25T18:05:07.257Z,5.60
2019-05-25T18:07:36.155Z,5.10
2019-05-25T18:10:07.096Z,5.17
2019-05-25T18:12:35.893Z,4.53
2019-05-25T18:15:09.866Z,5.13
2019-05-25T18:17:38.292Z,5.50
2019-05-25T18:20:09.321Z,5.60
2019-05-25T18:22:37.730Z,5.97
2019-05-25T18:25:25.876Z,5.40
2019-05-25T18:27:54.381Z,4.90
2019-05-25T18:30:23.445Z,4.80
2019-05-25T18:32:52.094Z,4.97
2019-05-25T18:35:20.562Z,5.37
2019-05-25T18:37:49.280Z,5.17
2019-05-25T18:40:18.637Z,5.53
2019-05-25T18:42:47.954Z,4.73
2019-05-25T18:45:16.921Z,5.10
2019-05-25T18:47:45.917Z,5.20
2019-05-25T18:50:15.333Z,5.40
2019-05-25T18:52:44.131Z,6.57
2019-05-25T18:55:13.155Z,5.90
2019-05-25T18:57:41.623Z,6.33
2019-05-25T19:00:10.844Z,6.50
2019-05-25T19:02:39.479Z,7.47
2019-05-25T19:05:08.751Z,6.80
2019-05-25T19:07:37.568Z,6.67
2019-05-25T19:10:09.854Z,6.60
2019-05-25T19:12:57.927Z,7.13
2019-05-25T19:15:26.359Z,8.33
2019-05-25T19:17:55.148Z,8.63
2019-05-25T19:20:23.719Z,9.63
2019-05-25T19:22:52.162Z,9.37
2019-05-25T19:25:20.797Z,10.00
2019-05-25T19:27:49.221Z,9.53
2019-05-25T19:30:18.278Z,9.27
2019-05-25T19:32:47.053Z,8.67
2019-05-25T19:35:15.705Z,10.27
2019-05-25T19:37:44.241Z,8.10
2019-05-25T19:40:12.810Z,9.60
2019-05-25T19:42:41.485Z,9.37
2019-05-25T19:45:10.564Z,10.40
2019-05-25T19:47:39.121Z,9.37
2019-05-25T19:50:26.913Z,9.00
2019-05-25T19:52:55.428Z,9.80
2019-05-25T19:55:23.961Z,9.90
2019-05-25T19:57:52.777Z,11.03
2019-05-25T20:00:21.671Z,11.37
2019-05-25T20:02:50.106Z,10.63
2019-05-25T20:05:18.874Z,11.07
2019-05-25T20:07:47.713Z,12.30
2019-05-25T20:10:18.246Z,10.63
2019-05-25T20:12:47.055Z,11.57
2019-05-25T20:15:16.357Z,11.50
2019-05-25T20:17:45.122Z,12.00
2019-05-25T20:20:13.604Z,11.70
2019-05-25T20:22:42.181Z,11.20
2019-05-25T20:25:10.802Z,11.47
2019-05-25T20:27:58.562Z,12.30
2019-05-25T20:30:27.008Z,12.40
2019-05-25T20:32:55.435Z,12.83
2019-05-25T20:35:33.049Z,12.53
2019-05-25T20:37:54.954Z,13.40
2019-05-25T20:40:24.179Z,12.13
2019-05-25T20:42:52.734Z,10.67
2019-05-25T20:45:22.425Z,11.73
2019-05-25T20:47:51.105Z,11.63
2019-05-25T20:50:20.066Z,11.57
2019-05-25T20:52:48.741Z,11.47
2019-05-25T20:55:17.174Z,11.67
2019-05-25T20:57:45.600Z,12.10
2019-05-25T21:00:14.774Z,12.47
2019-05-25T21:02:42.864Z,11.73
2019-05-25T21:05:11.441Z,12.00
2019-05-25T21:07:39.866Z,9.80
2019-05-25T21:10:09.291Z,10.33
2019-05-25T21:12:37.776Z,9.93
2019-05-25T21:15:09.020Z,9.57
2019-05-25T21:17:37.804Z,10.37
2019-05-25T21:20:09.073Z,10.00
2019-05-25T21:22:37.631Z,9.00
2019-05-25T21:25:07.661Z,9.87
2019-05-25T21:27:36.385Z,8.33
2019-05-25T21:30:06.164Z,8.03
2019-05-25T21:32:34.878Z,8.63
2019-05-25T21:35:04.576Z,8.03
2019-05-25T21:37:33.040Z,8.20
2019-05-25T21:40:01.941Z,7.47
2019-05-25T21:42:30.658Z,7.90
2019-05-25T21:44:59.088Z,7.60
2019-05-25T21:47:27.757Z,7.00
2019-05-25T21:49:56.520Z,6.47
2019-05-25T21:52:24.934Z,7.03
2019-05-25T21:54:53.349Z,6.50
2019-05-25T21:57:22.134Z,7.20
2019-05-25T21:59:50.965Z,8.30
2019-05-25T22:02:19.746Z,7.33
2019-05-25T22:04:48.174Z,7.93
2019-05-25T22:07:17.434Z,7.97
2019-05-25T22:09:45.865Z,7.07
2019-05-25T22:12:14.597Z,7.80
2019-05-25T22:14:43.021Z,7.37
2019-05-25T22:17:11.897Z,7.83
2019-05-25T22:19:40.637Z,8.90
2019-05-25T22:22:09.330Z,8.40
2019-05-25T22:24:37.804Z,9.37
2019-05-25T22:27:06.286Z,8.83
2019-05-25T22:29:35.053Z,8.57
2019-05-25T22:32:03.813Z,8.27
2019-05-25T22:34:32.573Z,9.97
2019-05-25T22:37:01.335Z,9.57
2019-05-25T22:39:29.974Z,10.33
2019-05-25T22:41:58.401Z,9.93
2019-05-25T22:44:27.086Z,11.80
2019-05-25T22:46:55.951Z,11.23
2019-05-25T22:49:24.673Z,10.73
2019-05-25T22:51:53.374Z,11.50
2019-05-25T22:54:21.985Z,9.50
2019-05-25T22:56:50.621Z,10.33
2019-05-25T22:59:19.577Z,10.80
2019-05-25T23:01:48.341Z,13.60
2019-05-25T23:04:16.825Z,14.80
2019-05-25T23:06:56.958Z,15.93
2019-05-25T23:09:15.891Z,15.37
2019-05-25T23:11:44.350Z,15.40
2019-05-25T23:14:13.201Z,15.23
2019-05-25T23:16:41.609Z,15.17
2019-05-25T23:19:10.048Z,16.70
2019-05-25T23:21:39.097Z,15.77
2019-05-25T23:24:07.914Z,17.23
2019-05-25T23:26:36.713Z,17.13
2019-05-25T23:29:05.718Z,16.80
2019-05-25T23:31:34.685Z,18.93
2019-05-25T23:34:03.213Z,17.47
2019-05-25T23:36:32.048Z,18.77
2019-05-25T23:39:00.708Z,18.63
2019-05-25T23:41:29.589Z,19.17
2019-05-25T23:43:59.997Z,18.43
2019-05-25T23:46:28.750Z,19.33
2019-05-25T23:48:57.168Z,19.90
2019-05-25T23:51:25.695Z,19.80
2019-05-25T23:53:54.389Z,19.87
2019-05-25T23:56:23.742Z,22.10
2019-05-25T23:58:52.205Z,21.13
